sensor_id;sensor_type;location;lat;lon;timestamp;P1;durP1;ratioP1;P2;durP2;ratioP2
22415;SDS011;12204;50.600;4.608;2022-09-27T00:04:48;24.42;;;12.93;;
22415;SDS011;12204;50.600;4.608;2022-09-27T00:09:53;26.42;;;12.32;;
22415;SDS011;12204;50.600;4.608;2022-09-27T00:14:56;25.65;;;12.10;;
22415;SDS011;12204;50.600;4.608;2022-09-27T00:20:03;23.45;;;10.68;;
22415;SDS011;12204;50.600;4.608;2022-09-27T00:25:09;22.35;;;10.93;;
22415;SDS011;12204;50.600;4.608;2022-09-27T00:30:13;20.42;;;10.27;;
22415;SDS011;12204;50.600;4.608;2022-09-27T00:35:18;20.70;;;9.48;;
22415;SDS011;12204;50.600;4.608;2022-09-27T00:40:22;19.45;;;9.43;;
22415;SDS011;12204;50.600;4.608;2022-09-27T00:45:26;20.25;;;9.45;;
22415;SDS011;12204;50.600;4.608;2022-09-27T00:50:31;17.90;;;8.70;;
22415;SDS011;12204;50.600;4.608;2022-09-27T00:55:40;17.58;;;7.95;;
22415;SDS011;12204;50.600;4.608;2022-09-27T01:00:50;20.50;;;8.30;;
22415;SDS011;12204;50.600;4.608;2022-09-27T01:06:00;16.13;;;7.72;;
22415;SDS011;12204;50.600;4.608;2022-09-27T01:11:13;16.50;;;7.15;;
22415;SDS011;12204;50.600;4.608;2022-09-27T01:16:52;16.42;;;6.53;;
22415;SDS011;12204;50.600;4.608;2022-09-27T01:22:08;17.10;;;6.95;;
22415;SDS011;12204;50.600;4.608;2022-09-27T01:27:30;14.82;;;6.38;;
22415;SDS011;12204;50.600;4.608;2022-09-27T01:39:07;11.45;;;5.28;;
22415;SDS011;12204;50.600;4.608;2022-09-27T01:45:03;13.10;;;5.20;;
22415;SDS011;12204;50.600;4.608;2022-09-27T01:50:43;11.35;;;4.95;;
22415;SDS011;12204;50.600;4.608;2022-09-27T01:55:54;11.70;;;5.40;;
22415;SDS011;12204;50.600;4.608;2022-09-27T02:01:27;11.00;;;4.70;;
22415;SDS011;12204;50.600;4.608;2022-09-27T02:06:37;9.50;;;4.50;;
22415;SDS011;12204;50.600;4.608;2022-09-27T02:11:52;13.63;;;4.60;;
22415;SDS011;12204;50.600;4.608;2022-09-27T02:17:07;10.00;;;4.00;;
22415;SDS011;12204;50.600;4.608;2022-09-27T02:22:29;9.02;;;3.80;;
22415;SDS011;12204;50.600;4.608;2022-09-27T02:27:37;8.65;;;3.70;;
22415;SDS011;12204;50.600;4.608;2022-09-27T02:33:01;9.07;;;3.63;;
22415;SDS011;12204;50.600;4.608;2022-09-27T02:38:06;10.35;;;3.65;;
22415;SDS011;12204;50.600;4.608;2022-09-27T02:43:11;10.15;;;3.33;;
22415;SDS011;12204;50.600;4.608;2022-09-27T02:48:18;8.23;;;3.40;;
22415;SDS011;12204;50.600;4.608;2022-09-27T02:53:43;7.18;;;3.08;;
22415;SDS011;12204;50.600;4.608;2022-09-27T02:59:29;9.23;;;3.13;;
22415;SDS011;12204;50.600;4.608;2022-09-27T03:04:58;7.15;;;2.80;;
22415;SDS011;12204;50.600;4.608;2022-09-27T03:10:15;9.20;;;3.20;;
22415;SDS011;12204;50.600;4.608;2022-09-27T03:15:22;8.15;;;3.10;;
22415;SDS011;12204;50.600;4.608;2022-09-27T03:20:34;7.13;;;2.70;;
22415;SDS011;12204;50.600;4.608;2022-09-27T03:25:43;7.00;;;2.67;;
22415;SDS011;12204;50.600;4.608;2022-09-27T03:30:48;8.15;;;2.80;;
22415;SDS011;12204;50.600;4.608;2022-09-27T03:36:21;9.52;;;2.75;;
22415;SDS011;12204;50.600;4.608;2022-09-27T03:41:26;7.03;;;2.40;;
22415;SDS011;12204;50.600;4.608;2022-09-27T03:46:30;10.60;;;2.50;;
22415;SDS011;12204;50.600;4.608;2022-09-27T03:51:33;9.23;;;2.33;;
22415;SDS011;12204;50.600;4.608;2022-09-27T03:56:38;6.10;;;2.17;;
22415;SDS011;12204;50.600;4.608;2022-09-27T04:01:42;6.07;;;2.20;;
22415;SDS011;12204;50.600;4.608;2022-09-27T04:07:06;6.05;;;2.20;;
22415;SDS011;12204;50.600;4.608;2022-09-27T04:12:11;5.75;;;2.00;;
22415;SDS011;12204;50.600;4.608;2022-09-27T04:17:16;5.43;;;1.98;;
22415;SDS011;12204;50.600;4.608;2022-09-27T04:22:39;6.40;;;1.95;;
22415;SDS011;12204;50.600;4.608;2022-09-27T04:27:46;6.28;;;1.73;;
22415;SDS011;12204;50.600;4.608;2022-09-27T04:32:56;5.53;;;1.73;;
22415;SDS011;12204;50.600;4.608;2022-09-27T04:38:20;5.22;;;1.90;;
22415;SDS011;12204;50.600;4.608;2022-09-27T04:43:26;4.38;;;1.60;;
22415;SDS011;12204;50.600;4.608;2022-09-27T04:48:30;3.90;;;1.52;;
22415;SDS011;12204;50.600;4.608;2022-09-27T04:53:34;6.78;;;1.40;;
22415;SDS011;12204;50.600;4.608;2022-09-27T04:58:39;4.95;;;1.60;;
22415;SDS011;12204;50.600;4.608;2022-09-27T05:03:43;6.35;;;1.52;;
22415;SDS011;12204;50.600;4.608;2022-09-27T05:08:49;5.57;;;1.50;;
22415;SDS011;12204;50.600;4.608;2022-09-27T05:13:54;5.68;;;1.45;;
22415;SDS011;12204;50.600;4.608;2022-09-27T05:19:04;4.95;;;1.30;;
22415;SDS011;12204;50.600;4.608;2022-09-27T05:24:30;4.25;;;1.27;;
22415;SDS011;12204;50.600;4.608;2022-09-27T05:29:38;4.85;;;1.20;;
22415;SDS011;12204;50.600;4.608;2022-09-27T05:34:47;4.55;;;1.23;;
22415;SDS011;12204;50.600;4.608;2022-09-27T05:39:54;4.20;;;1.10;;
22415;SDS011;12204;50.600;4.608;2022-09-27T05:44:59;3.95;;;1.30;;
22415;SDS011;12204;50.600;4.608;2022-09-27T05:50:08;3.70;;;1.20;;
22415;SDS011;12204;50.600;4.608;2022-09-27T05:55:12;3.45;;;1.02;;
22415;SDS011;12204;50.600;4.608;2022-09-27T06:00:17;2.80;;;1.10;;
22415;SDS011;12204;50.600;4.608;2022-09-27T06:05:23;3.22;;;1.05;;
22415;SDS011;12204;50.600;4.608;2022-09-27T06:10:32;4.13;;;1.20;;
22415;SDS011;12204;50.600;4.608;2022-09-27T06:15:41;3.60;;;1.00;;
22415;SDS011;12204;50.600;4.608;2022-09-27T06:20:47;4.60;;;1.08;;
22415;SDS011;12204;50.600;4.608;2022-09-27T06:25:51;4.13;;;0.90;;
22415;SDS011;12204;50.600;4.608;2022-09-27T06:31:06;5.43;;;0.93;;
22415;SDS011;12204;50.600;4.608;2022-09-27T06:36:20;6.97;;;1.20;;
22415;SDS011;12204;50.600;4.608;2022-09-27T06:41:24;5.78;;;1.30;;
22415;SDS011;12204;50.600;4.608;2022-09-27T06:46:40;8.95;;;1.27;;
22415;SDS011;12204;50.600;4.608;2022-09-27T06:51:44;5.65;;;1.20;;
22415;SDS011;12204;50.600;4.608;2022-09-27T06:56:48;5.25;;;1.10;;
22415;SDS011;12204;50.600;4.608;2022-09-27T07:01:53;6.90;;;1.23;;
22415;SDS011;12204;50.600;4.608;2022-09-27T07:07:29;4.68;;;0.85;;
22415;SDS011;12204;50.600;4.608;2022-09-27T07:12:34;7.05;;;1.10;;
22415;SDS011;12204;50.600;4.608;2022-09-27T07:17:39;6.40;;;1.10;;
22415;SDS011;12204;50.600;4.608;2022-09-27T07:22:43;3.80;;;1.08;;
22415;SDS011;12204;50.600;4.608;2022-09-27T07:27:47;5.82;;;1.00;;
22415;SDS011;12204;50.600;4.608;2022-09-27T07:32:56;6.78;;;1.00;;
22415;SDS011;12204;50.600;4.608;2022-09-27T07:38:00;6.95;;;1.05;;
22415;SDS011;12204;50.600;4.608;2022-09-27T07:43:05;8.68;;;1.00;;
22415;SDS011;12204;50.600;4.608;2022-09-27T07:48:12;4.97;;;1.10;;
22415;SDS011;12204;50.600;4.608;2022-09-27T07:53:32;3.78;;;0.98;;
22415;SDS011;12204;50.600;4.608;2022-09-27T07:58:54;5.00;;;0.98;;
22415;SDS011;12204;50.600;4.608;2022-09-27T08:04:00;3.70;;;1.00;;
22415;SDS011;12204;50.600;4.608;2022-09-27T08:09:04;7.72;;;1.10;;
22415;SDS011;12204;50.600;4.608;2022-09-27T08:14:12;7.57;;;1.17;;
22415;SDS011;12204;50.600;4.608;2022-09-27T08:19:20;4.70;;;1.10;;
22415;SDS011;12204;50.600;4.608;2022-09-27T08:24:44;9.40;;;1.40;;
22415;SDS011;12204;50.600;4.608;2022-09-27T08:30:09;6.15;;;1.40;;
22415;SDS011;12204;50.600;4.608;2022-09-27T08:35:16;5.70;;;1.15;;
22415;SDS011;12204;50.600;4.608;2022-09-27T08:40:20;5.25;;;1.17;;
22415;SDS011;12204;50.600;4.608;2022-09-27T08:45:30;3.80;;;0.93;;
22415;SDS011;12204;50.600;4.608;2022-09-27T08:50:41;5.07;;;1.17;;
22415;SDS011;12204;50.600;4.608;2022-09-27T08:55:49;5.20;;;1.00;;
22415;SDS011;12204;50.600;4.608;2022-09-27T09:00:58;3.22;;;0.93;;
22415;SDS011;12204;50.600;4.608;2022-09-27T09:06:13;4.15;;;1.08;;
22415;SDS011;12204;50.600;4.608;2022-09-27T09:11:25;5.28;;;1.00;;
22415;SDS011;12204;50.600;4.608;2022-09-27T09:17:06;5.93;;;1.00;;
22415;SDS011;12204;50.600;4.608;2022-09-27T09:22:48;4.25;;;0.90;;
22415;SDS011;12204;50.600;4.608;2022-09-27T09:28:37;4.65;;;1.10;;
22415;SDS011;12204;50.600;4.608;2022-09-27T09:34:02;3.10;;;0.77;;
22415;SDS011;12204;50.600;4.608;2022-09-27T09:39:18;5.50;;;1.00;;
22415;SDS011;12204;50.600;4.608;2022-09-27T09:44:28;4.28;;;0.90;;
22415;SDS011;12204;50.600;4.608;2022-09-27T09:49:43;3.78;;;1.00;;
22415;SDS011;12204;50.600;4.608;2022-09-27T09:54:56;3.45;;;1.10;;
22415;SDS011;12204;50.600;4.608;2022-09-27T10:00:12;3.13;;;0.90;;
22415;SDS011;12204;50.600;4.608;2022-09-27T10:05:24;4.53;;;0.90;;
22415;SDS011;12204;50.600;4.608;2022-09-27T10:10:38;3.75;;;0.80;;
22415;SDS011;12204;50.600;4.608;2022-09-27T10:16:18;4.07;;;0.80;;
22415;SDS011;12204;50.600;4.608;2022-09-27T10:21:24;5.03;;;1.03;;
22415;SDS011;12204;50.600;4.608;2022-09-27T10:26:34;3.78;;;1.00;;
22415;SDS011;12204;50.600;4.608;2022-09-27T10:31:42;4.32;;;1.00;;
22415;SDS011;12204;50.600;4.608;2022-09-27T10:37:02;2.55;;;0.90;;
22415;SDS011;12204;50.600;4.608;2022-09-27T10:42:32;4.88;;;0.90;;
22415;SDS011;12204;50.600;4.608;2022-09-27T10:47:42;4.13;;;0.80;;
22415;SDS011;12204;50.600;4.608;2022-09-27T10:53:02;6.97;;;1.00;;
22415;SDS011;12204;50.600;4.608;2022-09-27T10:58:14;3.05;;;0.70;;
22415;SDS011;12204;50.600;4.608;2022-09-27T11:03:22;4.40;;;1.00;;
22415;SDS011;12204;50.600;4.608;2022-09-27T11:08:31;6.95;;;1.10;;
22415;SDS011;12204;50.600;4.608;2022-09-27T11:19:17;9.95;;;2.03;;
22415;SDS011;12204;50.600;4.608;2022-09-27T11:24:49;10.20;;;2.05;;
22415;SDS011;12204;50.600;4.608;2022-09-27T11:30:19;9.80;;;2.20;;
22415;SDS011;12204;50.600;4.608;2022-09-27T11:35:46;10.02;;;2.20;;
22415;SDS011;12204;50.600;4.608;2022-09-27T11:41:02;10.45;;;2.10;;
22415;SDS011;12204;50.600;4.608;2022-09-27T11:46:32;13.88;;;2.80;;
22415;SDS011;12204;50.600;4.608;2022-09-27T11:57:37;15.27;;;2.53;;
22415;SDS011;12204;50.600;4.608;2022-09-27T12:14:05;33.65;;;9.60;;
22415;SDS011;12204;50.600;4.608;2022-09-27T12:19:21;42.13;;;10.45;;
22415;SDS011;12204;50.600;4.608;2022-09-27T12:24:39;41.35;;;11.57;;
22415;SDS011;12204;50.600;4.608;2022-09-27T12:30:03;42.15;;;13.80;;
22415;SDS011;12204;50.600;4.608;2022-09-27T12:35:13;44.00;;;13.60;;
22415;SDS011;12204;50.600;4.608;2022-09-27T12:40:24;39.47;;;13.02;;
22415;SDS011;12204;50.600;4.608;2022-09-27T12:45:35;39.13;;;11.68;;
22415;SDS011;12204;50.600;4.608;2022-09-27T12:50:54;35.92;;;11.77;;
22415;SDS011;12204;50.600;4.608;2022-09-27T12:56:18;33.40;;;11.30;;
22415;SDS011;12204;50.600;4.608;2022-09-27T13:07:52;37.58;;;11.80;;
22415;SDS011;12204;50.600;4.608;2022-09-27T13:13:27;37.42;;;11.90;;
22415;SDS011;12204;50.600;4.608;2022-09-27T13:18:51;40.45;;;11.85;;
22415;SDS011;12204;50.600;4.608;2022-09-27T13:24:16;36.63;;;11.32;;
22415;SDS011;12204;50.600;4.608;2022-09-27T13:36:04;33.78;;;10.65;;
22415;SDS011;12204;50.600;4.608;2022-09-27T13:41:27;27.63;;;9.60;;
22415;SDS011;12204;50.600;4.608;2022-09-27T13:46:45;28.17;;;9.20;;
22415;SDS011;12204;50.600;4.608;2022-09-27T13:51:56;30.20;;;9.32;;
22415;SDS011;12204;50.600;4.608;2022-09-27T14:02:59;26.65;;;8.98;;
22415;SDS011;12204;50.600;4.608;2022-09-27T14:08:13;25.25;;;8.43;;
22415;SDS011;12204;50.600;4.608;2022-09-27T14:13:29;20.52;;;7.45;;
22415;SDS011;12204;50.600;4.608;2022-09-27T14:18:41;20.95;;;6.60;;
22415;SDS011;12204;50.600;4.608;2022-09-27T14:29:38;20.65;;;5.30;;
22415;SDS011;12204;50.600;4.608;2022-09-27T14:35:04;13.68;;;4.15;;
22415;SDS011;12204;50.600;4.608;2022-09-27T14:40:33;12.50;;;3.78;;
22415;SDS011;12204;50.600;4.608;2022-09-27T14:45:44;12.60;;;4.00;;
22415;SDS011;12204;50.600;4.608;2022-09-27T14:50:52;12.65;;;3.70;;
22415;SDS011;12204;50.600;4.608;2022-09-27T14:56:06;12.35;;;3.63;;
22415;SDS011;12204;50.600;4.608;2022-09-27T15:01:15;13.48;;;3.45;;
22415;SDS011;12204;50.600;4.608;2022-09-27T15:06:21;12.73;;;3.40;;
22415;SDS011;12204;50.600;4.608;2022-09-27T15:11:26;11.73;;;3.22;;
22415;SDS011;12204;50.600;4.608;2022-09-27T15:16:34;10.67;;;3.13;;
22415;SDS011;12204;50.600;4.608;2022-09-27T15:21:38;9.95;;;2.78;;
22415;SDS011;12204;50.600;4.608;2022-09-27T15:26:42;11.70;;;3.00;;
22415;SDS011;12204;50.600;4.608;2022-09-27T15:31:58;16.48;;;3.30;;
22415;SDS011;12204;50.600;4.608;2022-09-27T15:37:05;14.32;;;2.95;;
22415;SDS011;12204;50.600;4.608;2022-09-27T15:42:13;13.85;;;3.10;;
22415;SDS011;12204;50.600;4.608;2022-09-27T15:47:40;13.73;;;2.63;;
22415;SDS011;12204;50.600;4.608;2022-09-27T15:52:51;11.20;;;2.65;;
22415;SDS011;12204;50.600;4.608;2022-09-27T15:57:58;10.57;;;2.77;;
22415;SDS011;12204;50.600;4.608;2022-09-27T16:03:07;12.43;;;3.00;;
22415;SDS011;12204;50.600;4.608;2022-09-27T16:08:11;9.98;;;2.50;;
22415;SDS011;12204;50.600;4.608;2022-09-27T16:13:16;9.77;;;2.47;;
22415;SDS011;12204;50.600;4.608;2022-09-27T16:18:21;9.02;;;2.60;;
22415;SDS011;12204;50.600;4.608;2022-09-27T16:23:30;8.57;;;2.17;;
22415;SDS011;12204;50.600;4.608;2022-09-27T16:28:34;11.38;;;1.90;;
22415;SDS011;12204;50.600;4.608;2022-09-27T16:33:39;6.57;;;1.80;;
22415;SDS011;12204;50.600;4.608;2022-09-27T16:38:43;7.35;;;2.00;;
22415;SDS011;12204;50.600;4.608;2022-09-27T16:43:51;6.15;;;1.70;;
22415;SDS011;12204;50.600;4.608;2022-09-27T16:48:56;8.70;;;1.98;;
22415;SDS011;12204;50.600;4.608;2022-09-27T16:53:59;8.43;;;2.13;;
22415;SDS011;12204;50.600;4.608;2022-09-27T16:59:03;8.77;;;2.25;;
22415;SDS011;12204;50.600;4.608;2022-09-27T17:04:08;10.10;;;2.05;;
22415;SDS011;12204;50.600;4.608;2022-09-27T17:09:14;5.97;;;2.20;;
22415;SDS011;12204;50.600;4.608;2022-09-27T17:14:18;5.57;;;1.90;;
22415;SDS011;12204;50.600;4.608;2022-09-27T17:19:24;7.60;;;2.00;;
22415;SDS011;12204;50.600;4.608;2022-09-27T17:24:28;6.32;;;1.90;;
22415;SDS011;12204;50.600;4.608;2022-09-27T17:29:32;5.70;;;2.08;;
22415;SDS011;12204;50.600;4.608;2022-09-27T17:34:37;6.50;;;1.80;;
22415;SDS011;12204;50.600;4.608;2022-09-27T17:39:44;5.70;;;1.73;;
22415;SDS011;12204;50.600;4.608;2022-09-27T17:44:47;7.80;;;1.80;;
22415;SDS011;12204;50.600;4.608;2022-09-27T17:49:52;5.38;;;1.67;;
22415;SDS011;12204;50.600;4.608;2022-09-27T17:55:14;6.53;;;1.83;;
22415;SDS011;12204;50.600;4.608;2022-09-27T18:00:18;7.63;;;1.75;;
22415;SDS011;12204;50.600;4.608;2022-09-27T18:05:23;6.47;;;1.90;;
22415;SDS011;12204;50.600;4.608;2022-09-27T18:10:27;9.30;;;2.00;;
22415;SDS011;12204;50.600;4.608;2022-09-27T18:15:31;6.95;;;1.80;;
22415;SDS011;12204;50.600;4.608;2022-09-27T18:20:39;5.93;;;1.70;;
22415;SDS011;12204;50.600;4.608;2022-09-27T18:25:43;4.88;;;1.67;;
22415;SDS011;12204;50.600;4.608;2022-09-27T18:31:00;6.03;;;1.60;;
22415;SDS011;12204;50.600;4.608;2022-09-27T18:36:09;5.05;;;1.60;;
22415;SDS011;12204;50.600;4.608;2022-09-27T18:41:15;6.30;;;1.55;;
22415;SDS011;12204;50.600;4.608;2022-09-27T18:46:22;5.10;;;1.65;;
22415;SDS011;12204;50.600;4.608;2022-09-27T18:51:38;4.85;;;1.70;;
22415;SDS011;12204;50.600;4.608;2022-09-27T18:56:47;4.55;;;1.58;;
22415;SDS011;12204;50.600;4.608;2022-09-27T19:01:52;4.93;;;1.40;;
22415;SDS011;12204;50.600;4.608;2022-09-27T19:06:58;4.53;;;1.50;;
22415;SDS011;12204;50.600;4.608;2022-09-27T19:12:02;5.05;;;1.35;;
22415;SDS011;12204;50.600;4.608;2022-09-27T19:17:07;4.32;;;1.45;;
22415;SDS011;12204;50.600;4.608;2022-09-27T19:22:12;3.78;;;1.40;;
22415;SDS011;12204;50.600;4.608;2022-09-27T19:27:15;5.68;;;1.20;;
22415;SDS011;12204;50.600;4.608;2022-09-27T19:32:19;3.38;;;1.30;;
22415;SDS011;12204;50.600;4.608;2022-09-27T19:37:24;5.95;;;1.30;;
22415;SDS011;12204;50.600;4.608;2022-09-27T19:42:27;5.22;;;1.33;;
22415;SDS011;12204;50.600;4.608;2022-09-27T19:47:31;6.07;;;1.42;;
22415;SDS011;12204;50.600;4.608;2022-09-27T19:52:37;4.75;;;1.45;;
22415;SDS011;12204;50.600;4.608;2022-09-27T19:57:41;3.97;;;1.10;;
22415;SDS011;12204;50.600;4.608;2022-09-27T20:02:45;4.25;;;1.20;;
22415;SDS011;12204;50.600;4.608;2022-09-27T20:07:50;4.13;;;1.27;;
22415;SDS011;12204;50.600;4.608;2022-09-27T20:12:54;5.30;;;1.30;;
22415;SDS011;12204;50.600;4.608;2022-09-27T20:17:59;4.95;;;1.20;;
22415;SDS011;12204;50.600;4.608;2022-09-27T20:23:10;3.50;;;1.05;;
22415;SDS011;12204;50.600;4.608;2022-09-27T20:28:14;5.10;;;1.35;;
22415;SDS011;12204;50.600;4.608;2022-09-27T20:33:27;4.00;;;1.10;;
22415;SDS011;12204;50.600;4.608;2022-09-27T20:38:49;2.85;;;1.10;;
22415;SDS011;12204;50.600;4.608;2022-09-27T20:44:03;3.78;;;1.30;;
22415;SDS011;12204;50.600;4.608;2022-09-27T20:49:09;3.97;;;1.10;;
22415;SDS011;12204;50.600;4.608;2022-09-27T20:54:17;4.50;;;1.13;;
22415;SDS011;12204;50.600;4.608;2022-09-27T20:59:21;3.83;;;1.10;;
22415;SDS011;12204;50.600;4.608;2022-09-27T21:04:24;4.18;;;1.13;;
22415;SDS011;12204;50.600;4.608;2022-09-27T21:09:32;3.72;;;1.10;;
22415;SDS011;12204;50.600;4.608;2022-09-27T21:14:37;5.13;;;1.10;;
22415;SDS011;12204;50.600;4.608;2022-09-27T21:19:41;3.47;;;1.05;;
22415;SDS011;12204;50.600;4.608;2022-09-27T21:24:46;5.38;;;1.35;;
22415;SDS011;12204;50.600;4.608;2022-09-27T21:29:50;4.05;;;1.30;;
22415;SDS011;12204;50.600;4.608;2022-09-27T21:34:53;4.53;;;1.20;;
22415;SDS011;12204;50.600;4.608;2022-09-27T21:39:59;3.78;;;1.10;;
22415;SDS011;12204;50.600;4.608;2022-09-27T21:45:05;3.13;;;1.00;;
22415;SDS011;12204;50.600;4.608;2022-09-27T21:50:11;5.68;;;1.40;;
22415;SDS011;12204;50.600;4.608;2022-09-27T21:55:16;5.40;;;1.23;;
22415;SDS011;12204;50.600;4.608;2022-09-27T22:00:19;5.70;;;1.35;;
22415;SDS011;12204;50.600;4.608;2022-09-27T22:05:23;4.57;;;1.10;;
22415;SDS011;12204;50.600;4.608;2022-09-27T22:10:28;3.13;;;0.95;;
22415;SDS011;12204;50.600;4.608;2022-09-27T22:15:33;3.72;;;1.20;;
22415;SDS011;12204;50.600;4.608;2022-09-27T22:20:37;5.20;;;1.20;;
22415;SDS011;12204;50.600;4.608;2022-09-27T22:25:42;3.72;;;1.20;;
22415;SDS011;12204;50.600;4.608;2022-09-27T22:30:46;4.07;;;1.30;;
22415;SDS011;12204;50.600;4.608;2022-09-27T22:35:50;8.77;;;1.60;;
22415;SDS011;12204;50.600;4.608;2022-09-27T22:40:55;10.18;;;1.90;;
22415;SDS011;12204;50.600;4.608;2022-09-27T22:46:01;12.48;;;2.30;;
22415;SDS011;12204;50.600;4.608;2022-09-27T22:51:05;10.70;;;2.13;;
22415;SDS011;12204;50.600;4.608;2022-09-27T22:56:13;9.60;;;2.17;;
22415;SDS011;12204;50.600;4.608;2022-09-27T23:01:20;11.93;;;2.30;;
22415;SDS011;12204;50.600;4.608;2022-09-27T23:06:25;15.02;;;2.70;;
22415;SDS011;12204;50.600;4.608;2022-09-27T23:11:31;12.50;;;2.55;;
22415;SDS011;12204;50.600;4.608;2022-09-27T23:16:34;9.45;;;2.50;;
22415;SDS011;12204;50.600;4.608;2022-09-27T23:21:39;9.43;;;2.20;;
22415;SDS011;12204;50.600;4.608;2022-09-27T23:26:44;9.18;;;2.15;;
22415;SDS011;12204;50.600;4.608;2022-09-27T23:32:08;9.90;;;2.38;;
22415;SDS011;12204;50.600;4.608;2022-09-27T23:37:12;8.65;;;2.13;;
22415;SDS011;12204;50.600;4.608;2022-09-27T23:42:17;8.73;;;1.90;;
22415;SDS011;12204;50.600;4.608;2022-09-27T23:47:21;8.63;;;1.90;;
22415;SDS011;12204;50.600;4.608;2022-09-27T23:52:25;5.40;;;1.70;;
22415;SDS011;12204;50.600;4.608;2022-09-27T23:57:30;5.55;;;1.55;;
